Time;durP1;ratioP1;P1;durP2;ratioP2;P2;SDS_P1;SDS_P2;PMS_P1;PMS_P2;Temp;Humidity;BMP_temperature;BMP_pressure;BME280_temperature;BME280_humidity;BME280_pressure;Samples;Min_cycle;Max_cycle;Signal;HPM_P1;HPM_P2
2023/12/06 02:43:55;;;;;;;99.40;44.30;;;;;;;-4.40;86.45;98965.23;106504;1305;558637;-43
2023/12/06 02:46:20;;;;;;;92.30;41.90;;;;;;;-4.48;86.73;98958.05;107880;1304;23327;-48
2023/12/06 02:48:46;;;;;;;86.60;39.70;;;;;;;-4.50;86.64;98958.39;107861;1307;22273;-46
2023/12/06 02:51:11;;;;;;;95.10;43.00;;;;;;;-4.55;86.69;98959.09;107890;1307;22465;-46
2023/12/06 02:53:37;;;;;;;92.20;43.50;;;;;;;-4.63;86.90;98965.25;107861;1307;23238;-50
2023/12/06 02:56:02;;;;;;;97.20;44.60;;;;;;;-4.65;87.12;98964.39;107781;1305;133272;-45
2023/12/06 02:58:28;;;;;;;102.80;45.20;;;;;;;-4.64;87.33;98967.98;108147;1305;22240;-45
2023/12/06 03:00:53;;;;;;;98.40;43.30;;;;;;;-4.62;87.29;98964.38;108114;1305;22240;-46
2023/12/06 03:03:18;;;;;;;104.30;47.20;;;;;;;-4.58;87.12;98963.87;108157;1305;23311;-46
2023/12/06 03:05:44;;;;;;;103.60;45.00;;;;;;;-4.56;87.15;98962.17;108145;1305;22912;-47
2023/12/06 03:08:14;;;;;;;95.10;44.00;;;;;;;-4.54;87.16;98962.84;108135;1305;22811;-48
2023/12/06 03:10:39;;;;;;;100.30;43.20;;;;;;;-4.49;87.28;98964.22;108150;1297;22434;-47
2023/12/06 03:13:04;;;;;;;96.40;40.90;;;;;;;-4.43;87.40;98963.19;108143;1305;22162;-46
2023/12/06 03:15:30;;;;;;;90.10;41.50;;;;;;;-4.40;87.15;98963.02;108157;1305;22613;-47
2023/12/06 03:17:55;;;;;;;94.90;42.30;;;;;;;-4.37;87.15;98966.43;108131;1305;22423;-44
2023/12/06 03:20:21;;;;;;;89.30;40.50;;;;;;;-4.31;87.14;98971.41;107957;1305;22239;-44
2023/12/06 03:22:47;;;;;;;91.10;39.70;;;;;;;-4.30;87.08;98973.63;108154;1298;22495;-44
2023/12/06 03:25:12;;;;;;;91.00;41.30;;;;;;;-4.26;87.09;98973.45;108120;1305;22439;-45
2023/12/06 03:27:37;;;;;;;91.70;41.40;;;;;;;-4.24;87.34;98975.67;108114;1305;22371;-45
2023/12/06 03:30:04;;;;;;;94.10;42.00;;;;;;;-4.27;87.24;98977.73;108140;1305;23217;-45
2023/12/06 03:32:29;;;;;;;103.50;44.50;;;;;;;-4.22;87.48;98983.89;108157;1305;22278;-44
2023/12/06 03:34:55;;;;;;;96.80;43.50;;;;;;;-4.20;88.07;98982.85;108131;1305;23215;-45
2023/12/06 03:37:20;;;;;;;90.10;42.20;;;;;;;-4.16;88.01;98981.83;108118;1305;22527;-46
2023/12/06 03:39:46;;;;;;;99.00;43.10;;;;;;;-4.16;88.16;98980.80;108139;1305;23140;-45
2023/12/06 03:42:11;;;;;;;99.30;42.70;;;;;;;-4.15;88.14;98979.60;108112;1305;22239;-48
2023/12/06 03:44:36;;;;;;;97.40;43.00;;;;;;;-4.17;88.08;98977.38;108134;1305;23116;-46
2023/12/06 03:47:02;;;;;;;97.50;42.80;;;;;;;-4.18;88.15;98981.15;108110;1305;22325;-47
2023/12/06 03:49:27;;;;;;;98.00;43.40;;;;;;;-4.18;87.95;98981.15;108140;1305;23178;-51
2023/12/06 03:51:53;;;;;;;102.60;42.90;;;;;;;-4.19;88.00;98986.80;108137;1301;22357;-45
2023/12/06 03:54:18;;;;;;;92.80;41.60;;;;;;;-4.21;87.83;98988.17;108121;1305;22346;-48
2023/12/06 03:56:44;;;;;;;95.50;42.20;;;;;;;-4.24;87.97;98985.43;108116;1298;23159;-46
2023/12/06 03:59:09;;;;;;;90.60;38.60;;;;;;;-4.25;88.29;98979.80;108107;1305;22484;-45
2023/12/06 04:01:35;;;;;;;91.20;41.20;;;;;;;-4.27;88.30;98973.61;108120;1298;22227;-44
2023/12/06 04:04:00;;;;;;;85.40;39.20;;;;;;;-4.26;88.89;98968.67;108151;1305;22258;-49
2023/12/06 04:06:26;;;;;;;93.50;40.10;;;;;;;-4.24;88.80;98966.95;108106;1298;22282;-46
2023/12/06 04:08:51;;;;;;;87.20;38.50;;;;;;;-4.27;88.76;98961.30;108133;1305;22502;-47
2023/12/06 04:11:16;;;;;;;90.80;40.20;;;;;;;-4.29;88.70;98960.63;108120;1305;22247;-47
2023/12/06 04:13:42;;;;;;;87.80;39.50;;;;;;;-4.26;88.60;98963.36;108083;1305;22901;-51
2023/12/06 04:16:07;;;;;;;95.30;41.30;;;;;;;-4.23;88.52;98965.92;108130;1299;23011;-45
2023/12/06 04:18:33;;;;;;;89.70;39.50;;;;;;;-4.23;88.64;98966.09;108142;1305;22898;-46
2023/12/06 04:20:58;;;;;;;92.30;40.00;;;;;;;-4.16;88.46;98965.39;108106;1298;22314;-44
2023/12/06 04:23:23;;;;;;;92.40;40.00;;;;;;;-4.15;88.54;98963.52;108141;1305;23157;-46
2023/12/06 04:25:49;;;;;;;92.60;39.90;;;;;;;-4.11;88.53;98965.90;108133;1305;24278;-46
2023/12/06 04:28:14;;;;;;;90.40;40.80;;;;;;;-4.04;88.59;98966.92;108111;1305;22276;-44
2023/12/06 04:30:40;;;;;;;103.10;43.50;;;;;;;-4.01;88.28;98967.60;108136;1305;23248;-45
2023/12/06 04:33:05;;;;;;;120.50;49.50;;;;;;;-3.97;88.25;98969.81;108114;1305;22259;-44
2023/12/06 04:35:30;;;;;;;116.70;50.10;;;;;;;-3.99;88.02;98970.16;108147;1305;22358;-44
2023/12/06 04:37:56;;;;;;;106.70;47.20;;;;;;;-3.94;88.15;98974.77;108132;1305;22471;-46
2023/12/06 04:40:21;;;;;;;97.60;41.40;;;;;;;-3.91;88.20;98978.36;108111;1305;22243;-47
2023/12/06 04:42:47;;;;;;;114.50;45.20;;;;;;;-3.93;87.78;98985.92;108116;1305;22231;-48
2023/12/06 04:45:12;;;;;;;105.40;43.60;;;;;;;-3.99;87.63;98984.04;108115;1305;22382;-49
2023/12/06 04:47:37;;;;;;;109.30;44.60;;;;;;;-3.97;87.83;98980.94;108114;1305;23421;-48
2023/12/06 04:50:04;;;;;;;113.40;46.10;;;;;;;-4.00;87.87;98978.04;108002;1305;22575;-46
2023/12/06 04:52:29;;;;;;;97.30;39.40;;;;;;;-3.98;87.90;98980.44;108141;1305;22238;-45
2023/12/06 04:54:55;;;;;;;114.80;45.40;;;;;;;-3.99;87.95;98981.64;108132;1305;23018;-47
2023/12/06 04:57:20;;;;;;;103.00;42.60;;;;;;;-4.04;88.19;98980.95;108107;1305;22241;-47
2023/12/06 04:59:45;;;;;;;98.20;41.30;;;;;;;-4.08;88.17;98982.16;108114;1305;22495;-48
2023/12/06 05:02:11;;;;;;;110.40;45.60;;;;;;;-4.11;88.45;98980.13;108091;1298;23016;-46
2023/12/06 05:04:36;;;;;;;99.30;42.40;;;;;;;-4.13;88.37;98983.37;108131;1305;22279;-50
2023/12/06 05:07:02;;;;;;;101.00;43.20;;;;;;;-4.15;88.23;98986.96;108106;1305;22264;-50
2023/12/06 05:09:28;;;;;;;103.40;45.20;;;;;;;-4.22;88.14;98987.31;108129;1305;24375;-48
2023/12/06 05:11:53;;;;;;;95.80;42.40;;;;;;;-4.24;88.25;98986.64;108120;1305;22301;-47
2023/12/06 05:14:19;;;;;;;93.20;40.60;;;;;;;-4.26;88.07;98990.23;108136;1305;22417;-47
2023/12/06 05:16:44;;;;;;;98.00;42.00;;;;;;;-4.32;88.13;98996.04;108125;1302;22283;-49
2023/12/06 05:19:09;;;;;;;100.60;40.90;;;;;;;-4.36;88.32;99000.66;108123;1305;22261;-47
2023/12/06 05:21:35;;;;;;;98.60;41.90;;;;;;;-4.40;88.29;99001.19;108113;1305;22513;-48
2023/12/06 05:24:00;;;;;;;108.10;42.80;;;;;;;-4.42;88.69;99000.50;108121;1305;22251;-50
2023/12/06 05:26:25;;;;;;;101.60;43.50;;;;;;;-4.43;88.90;99006.14;108128;1305;22240;-49
2023/12/06 05:28:51;;;;;;;115.10;47.40;;;;;;;-4.41;88.74;99008.03;108137;1305;22317;-44
2023/12/06 05:31:17;;;;;;;100.70;44.30;;;;;;;-4.44;88.83;99008.35;108149;1305;22906;-50
2023/12/06 05:33:42;;;;;;;107.50;42.00;;;;;;;-4.44;88.95;99008.20;108126;1305;22248;-47
2023/12/06 05:36:08;;;;;;;89.00;38.80;;;;;;;-4.44;89.00;99007.17;108135;1305;22258;-48
2023/12/06 05:38:33;;;;;;;99.10;42.90;;;;;;;-4.46;88.96;99009.40;108144;1301;22659;-45
2023/12/06 05:41:00;;;;;;;104.00;44.70;;;;;;;-4.41;89.02;99018.81;108128;1305;22399;-48
2023/12/06 05:43:25;;;;;;;101.90;45.20;;;;;;;-4.39;89.28;99027.52;108128;1305;22328;-46
2023/12/06 05:45:50;;;;;;;103.20;45.00;;;;;;;-4.34;89.13;99019.16;108139;1305;22512;-45
2023/12/06 05:48:16;;;;;;;102.10;45.20;;;;;;;-4.29;88.81;99014.70;108131;1305;22263;-49
2023/12/06 05:50:41;;;;;;;106.00;43.90;;;;;;;-4.26;88.68;99012.48;108111;1305;22667;-50
2023/12/06 05:53:06;;;;;;;106.90;44.40;;;;;;;-4.21;88.42;99013.68;108094;1305;23144;-46
2023/12/06 05:55:32;;;;;;;104.40;44.60;;;;;;;-4.16;88.43;99014.70;108122;1305;22424;-44
2023/12/06 05:57:57;;;;;;;110.20;45.90;;;;;;;-4.14;88.40;99012.13;108126;1305;22374;-47
2023/12/06 06:00:24;;;;;;;106.70;44.80;;;;;;;-4.11;88.17;99012.13;108126;1305;23530;-45
2023/12/06 06:02:51;;;;;;;101.20;43.20;;;;;;;-4.11;88.12;99010.07;108124;1297;22264;-46
2023/12/06 06:05:18;;;;;;;103.30;44.90;;;;;;;-4.13;88.29;99004.27;108133;1305;22407;-44
2023/12/06 06:07:43;;;;;;;99.60;45.10;;;;;;;-4.13;88.30;99002.71;108146;1305;23008;-48
2023/12/06 06:10:09;;;;;;;96.70;43.10;;;;;;;-4.13;88.28;99005.80;108148;1305;22428;-49
2023/12/06 06:12:35;;;;;;;95.50;38.80;;;;;;;-4.15;88.41;99010.92;108139;1305;22421;-47
2023/12/06 06:15:00;;;;;;;98.70;43.10;;;;;;;-4.18;88.32;99012.13;108122;1305;22247;-44
2023/12/06 06:17:26;;;;;;;98.30;44.20;;;;;;;-4.21;88.69;99006.14;108122;1305;22287;-48
2023/12/06 06:19:52;;;;;;;100.30;44.30;;;;;;;-4.17;88.94;99004.09;108135;1305;22486;-47
2023/12/06 06:22:17;;;;;;;97.80;42.80;;;;;;;-4.14;88.83;99000.66;108129;1301;22250;-43
2023/12/06 06:24:43;;;;;;;90.50;40.80;;;;;;;-4.17;88.88;98999.28;108138;1305;22854;-45
2023/12/06 06:27:08;;;;;;;86.20;39.50;;;;;;;-4.19;88.77;98997.91;108126;1298;22346;-45
2023/12/06 06:29:33;;;;;;;101.20;46.90;;;;;;;-4.21;89.42;99003.58;108142;1305;22340;-45
2023/12/06 06:31:59;;;;;;;106.50;44.50;;;;;;;-4.18;89.33;99005.45;108131;1305;22562;-48
2023/12/06 06:34:24;;;;;;;104.80;45.00;;;;;;;-4.13;89.37;99006.14;108130;1305;22306;-46
2023/12/06 06:36:50;;;;;;;100.60;43.60;;;;;;;-4.10;89.33;99011.44;108114;1305;23250;-49
2023/12/06 06:39:15;;;;;;;107.80;46.70;;;;;;;-4.09;89.22;99015.38;108034;1306;22258;-52
2023/12/06 06:41:40;;;;;;;98.20;44.30;;;;;;;-4.02;89.33;99016.41;107988;1306;22561;-45
2023/12/06 06:44:06;;;;;;;105.40;45.00;;;;;;;-3.96;89.13;99018.45;108113;1298;22704;-43
2023/12/06 06:46:32;;;;;;;95.10;42.20;;;;;;;-3.89;89.07;99022.03;108139;1305;24233;-46
2023/12/06 06:48:57;;;;;;;98.10;44.70;;;;;;;-3.82;88.90;99021.86;108108;1305;22299;-46
2023/12/06 06:51:33;;;;;;;92.20;41.70;;;;;;;-3.79;88.55;99022.70;108152;1305;22252;-45
2023/12/06 06:53:58;;;;;;;97.30;42.20;;;;;;;-3.78;88.16;99028.36;108126;1299;22208;-45
2023/12/06 06:56:24;;;;;;;95.30;40.80;;;;;;;-3.78;87.91;99026.82;108123;1305;23315;-46
2023/12/06 06:58:49;;;;;;;101.60;45.40;;;;;;;-3.81;87.64;99032.47;108123;1305;22333;-47
2023/12/06 07:01:14;;;;;;;98.80;41.90;;;;;;;-3.83;87.42;99038.81;108103;1305;22302;-47
2023/12/06 07:03:40;;;;;;;97.40;41.60;;;;;;;-3.85;87.47;99043.45;108103;1302;22477;-48
2023/12/06 07:06:05;;;;;;;105.00;42.40;;;;;;;-3.88;87.49;99046.17;108111;1305;25376;-47
2023/12/06 07:08:31;;;;;;;103.60;42.70;;;;;;;-3.94;87.47;99046.88;108095;1305;22256;-46
2023/12/06 07:10:57;;;;;;;96.10;43.80;;;;;;;-3.99;87.74;99046.89;108119;1305;22420;-47
2023/12/06 07:13:22;;;;;;;101.60;43.90;;;;;;;-4.00;88.07;99053.05;108120;1305;22270;-47
2023/12/06 07:15:48;;;;;;;108.20;46.90;;;;;;;-3.99;88.12;99056.30;108127;1305;23171;-45
2023/12/06 07:18:13;;;;;;;104.50;43.20;;;;;;;-4.01;88.18;99059.04;108088;1298;22515;-44
2023/12/06 07:20:38;;;;;;;97.60;42.80;;;;;;;-3.99;88.17;99060.92;108104;1304;22288;-44
2023/12/06 07:23:04;;;;;;;110.50;46.70;;;;;;;-4.04;88.18;99060.23;108108;1305;22317;-46
2023/12/06 07:25:30;;;;;;;110.10;46.40;;;;;;;-4.08;88.40;99059.73;108105;1305;22260;-45
2023/12/06 07:27:56;;;;;;;113.70;45.70;;;;;;;-4.13;88.61;99058.18;108131;1304;22907;-45
2023/12/06 07:30:21;;;;;;;112.40;47.40;;;;;;;-4.11;88.82;99058.18;108129;1305;23111;-44
2023/12/06 07:32:46;;;;;;;126.50;47.80;;;;;;;-4.12;88.85;99059.04;108100;1298;22437;-48
2023/12/06 07:35:12;;;;;;;109.70;46.50;;;;;;;-4.08;89.06;99064.69;108129;1305;22265;-48
2023/12/06 07:37:37;;;;;;;109.30;43.60;;;;;;;-4.01;89.06;99067.94;108121;1305;22307;-49
2023/12/06 07:40:03;;;;;;;107.20;44.60;;;;;;;-3.95;89.05;99073.08;108115;1282;22351;-44
2023/12/06 07:42:29;;;;;;;100.10;43.10;;;;;;;-3.88;88.82;99074.27;108125;1305;22243;-46
2023/12/06 07:44:54;;;;;;;112.00;44.40;;;;;;;-3.80;88.73;99073.08;108152;1305;22234;-46
2023/12/06 07:47:20;;;;;;;105.20;44.40;;;;;;;-3.69;88.60;99076.83;108113;1305;22916;-49
2023/12/06 07:49:45;;;;;;;116.80;45.40;;;;;;;-3.63;88.22;99082.47;108147;1305;22941;-45
2023/12/06 07:52:11;;;;;;;116.30;48.50;;;;;;;-3.59;88.08;99082.12;108116;1305;22932;-47
2023/12/06 07:54:37;;;;;;;120.80;53.70;;;;;;;-3.56;88.10;99080.92;108124;1305;22864;-49
2023/12/06 07:57:03;;;;;;;111.10;46.80;;;;;;;-3.51;87.98;99081.77;107691;1305;22581;-46
2023/12/06 07:59:28;;;;;;;121.80;51.00;;;;;;;-3.50;88.01;99083.14;108142;1304;22267;-45
2023/12/06 08:01:55;;;;;;;111.20;48.40;;;;;;;-3.48;87.78;99087.77;108124;1305;22301;-46
2023/12/06 08:04:20;;;;;;;108.70;46.90;;;;;;;-3.49;87.76;99088.27;108124;1305;22333;-47
2023/12/06 08:06:46;;;;;;;101.90;41.80;;;;;;;-3.51;87.75;99085.38;108131;1305;22281;-46
2023/12/06 08:09:12;;;;;;;106.10;44.50;;;;;;;-3.52;87.69;99084.85;108090;1298;22369;-44
2023/12/06 08:11:41;;;;;;;103.60;44.40;;;;;;;-3.56;87.81;99082.45;108136;1305;22313;-43
2023/12/06 08:14:07;;;;;;;103.50;44.50;;;;;;;-3.55;88.12;99080.57;108117;1305;22299;-47
2023/12/06 08:16:32;;;;;;;107.30;45.10;;;;;;;-3.55;88.06;99073.71;108117;1305;22280;-44
2023/12/06 08:18:57;;;;;;;95.80;43.00;;;;;;;-3.53;88.04;99075.27;108106;1302;22325;-45
2023/12/06 08:21:24;;;;;;;105.10;43.50;;;;;;;-3.50;88.32;99072.50;108099;1305;22337;-46
2023/12/06 08:23:49;;;;;;;94.00;41.30;;;;;;;-3.43;88.27;99069.92;108112;1298;22458;-46
2023/12/06 08:26:15;;;;;;;96.00;42.00;;;;;;;-3.44;87.83;99070.78;108140;1302;23100;-46
2023/12/06 08:28:40;;;;;;;105.40;45.70;;;;;;;-3.43;87.78;99069.92;108131;1304;23218;-46
2023/12/06 08:31:08;;;;;;;103.40;44.10;;;;;;;-3.38;87.86;99068.70;108112;1305;22331;-43
2023/12/06 08:33:33;;;;;;;115.10;47.10;;;;;;;-3.31;87.86;99066.48;108119;1298;22261;-44
2023/12/06 08:35:59;;;;;;;104.60;43.80;;;;;;;-3.30;87.69;99069.72;108106;1305;22260;-45
2023/12/06 08:38:24;;;;;;;103.00;44.90;;;;;;;-3.22;87.72;99073.48;108118;1305;22347;-48
2023/12/06 08:40:50;;;;;;;102.80;44.00;;;;;;;-3.14;87.55;99074.98;108127;1305;22454;-48
2023/12/06 08:43:15;;;;;;;105.00;42.90;;;;;;;-3.12;87.04;99077.88;108089;1302;22246;-44
2023/12/06 08:45:40;;;;;;;91.80;41.40;;;;;;;-3.08;87.09;99076.16;108117;1305;22246;-44
2023/12/06 08:48:06;;;;;;;102.60;45.00;;;;;;;-3.07;86.87;99071.52;108096;1305;22940;-45
2023/12/06 08:50:31;;;;;;;103.30;46.20;;;;;;;-3.03;86.67;99073.73;108145;1305;23274;-46
2023/12/06 08:52:57;;;;;;;99.60;44.30;;;;;;;-2.98;86.70;99078.70;108110;1305;22502;-44
2023/12/06 08:55:22;;;;;;;97.90;44.20;;;;;;;-2.90;86.80;99087.23;108108;1305;22443;-47
2023/12/06 08:57:50;;;;;;;103.10;43.20;;;;;;;-2.84;86.72;99088.77;108120;1305;22256;-48
2023/12/06 09:00:15;;;;;;;77.30;34.40;;;;;;;-2.81;86.45;99088.40;108110;1305;22248;-47
2023/12/06 09:02:42;;;;;;;93.50;40.60;;;;;;;-2.83;86.22;99084.13;108135;1300;22295;-47
2023/12/06 09:05:11;;;;;;;95.30;41.50;;;;;;;-2.77;86.46;99084.60;108121;1305;23020;-46
2023/12/06 09:07:37;;;;;;;89.60;39.50;;;;;;;-2.68;86.29;99079.08;108126;1305;23139;-44
2023/12/06 09:10:03;;;;;;;101.30;42.70;;;;;;;-2.65;86.07;99076.83;108158;1305;22383;-44
2023/12/06 09:12:29;;;;;;;98.90;41.10;;;;;;;-2.62;85.88;99078.17;108132;1305;22227;-48
2023/12/06 09:14:54;;;;;;;93.50;40.90;;;;;;;-2.64;85.49;99074.26;108129;1294;22255;-46
2023/12/06 09:17:20;;;;;;;98.20;40.70;;;;;;;-2.62;85.96;99072.86;108129;1305;22303;-48
2023/12/06 09:19:45;;;;;;;102.60;41.80;;;;;;;-2.60;86.00;99076.80;108105;1305;22237;-47
2023/12/06 09:22:11;;;;;;;94.80;41.60;;;;;;;-2.55;85.95;99078.48;108094;1305;22844;-48
2023/12/06 09:24:36;;;;;;;97.50;41.90;;;;;;;-2.51;85.83;99077.27;108135;1305;22273;-44
2023/12/06 09:27:02;;;;;;;97.90;43.20;;;;;;;-2.48;85.97;99076.55;108137;1305;22244;-48
2023/12/06 09:29:27;;;;;;;99.30;44.90;;;;;;;-2.40;86.11;99073.77;108103;1305;23049;-44
2023/12/06 09:31:52;;;;;;;104.80;43.90;;;;;;;-2.38;85.81;99067.56;108099;1305;22418;-48
2023/12/06 09:34:18;;;;;;;98.40;41.90;;;;;;;-2.33;85.52;99063.92;108093;1302;22257;-49
2023/12/06 09:36:43;;;;;;;102.70;45.00;;;;;;;-2.30;85.44;99060.30;108127;1305;23129;-46
2023/12/06 09:39:08;;;;;;;92.30;41.90;;;;;;;-2.23;85.63;99058.20;108136;1305;23067;-50
2023/12/06 09:41:34;;;;;;;101.40;46.30;;;;;;;-2.14;85.81;99061.73;108103;1305;23213;-44
2023/12/06 09:44:00;;;;;;;110.00;47.60;;;;;;;-2.10;85.51;99061.02;108120;1305;22273;-44
2023/12/06 09:46:26;;;;;;;91.00;41.40;;;;;;;-2.10;85.40;99058.95;108086;1301;23520;-49
2023/12/06 09:48:52;;;;;;;88.60;39.20;;;;;;;-2.08;85.30;99060.83;108083;1302;22249;-48
2023/12/06 09:51:19;;;;;;;88.80;39.70;;;;;;;-2.04;85.08;99064.40;108125;1305;22478;-44
2023/12/06 09:53:44;;;;;;;86.40;38.10;;;;;;;-2.01;85.06;99067.12;108141;1305;22640;-48
2023/12/06 09:56:10;;;;;;;88.10;39.00;;;;;;;-1.97;84.95;99066.73;108127;1298;22266;-47
2023/12/06 09:58:36;;;;;;;90.30;40.20;;;;;;;-1.98;84.82;99060.56;108098;1304;22248;-46
2023/12/06 10:01:03;;;;;;;89.80;40.30;;;;;;;-1.94;84.97;99062.09;108112;1305;23123;-48
2023/12/06 10:03:28;;;;;;;92.10;39.60;;;;;;;-1.87;85.08;99061.69;108119;1299;23146;-49
2023/12/06 10:05:58;;;;;;;86.50;38.80;;;;;;;-1.81;85.06;99060.09;108057;1291;22454;-45
2023/12/06 10:08:24;;;;;;;87.10;41.50;;;;;;;-1.80;85.10;99055.61;107968;1290;22529;-48
2023/12/06 10:11:12;;;;;;;89.90;41.50;;;;;;;-1.73;85.22;99052.44;108082;1305;22252;-44
2023/12/06 10:13:41;;;;;;;98.80;41.10;;;;;;;-1.65;85.45;99051.52;108069;1303;22341;-45
2023/12/06 10:16:17;;;;;;;97.60;40.80;;;;;;;-1.61;85.22;99047.70;108088;1302;22297;-44
2023/12/06 10:18:48;;;;;;;90.60;40.50;;;;;;;-1.59;84.71;99046.45;108073;1291;22983;-46
2023/12/06 10:21:15;;;;;;;87.50;38.20;;;;;;;-1.56;84.61;99051.60;107778;1305;22558;-41
2023/12/06 10:23:42;;;;;;;85.00;38.80;;;;;;;-1.56;84.35;99047.82;107533;1298;22327;-44
2023/12/06 10:26:14;;;;;;;89.70;37.10;;;;;;;-1.53;84.76;99043.13;107959;1298;22493;-44
2023/12/06 10:28:40;;;;;;;89.00;38.00;;;;;;;-1.44;84.96;99039.95;107515;1298;22557;-42
2023/12/06 10:31:06;;;;;;;89.20;39.50;;;;;;;-1.43;84.73;99038.73;108084;1305;23022;-43
2023/12/06 10:33:32;;;;;;;95.00;41.40;;;;;;;-1.39;84.63;99034.90;108122;1298;22646;-47
2023/12/06 10:36:00;;;;;;;92.70;39.10;;;;;;;-1.31;85.03;99029.66;108104;1305;22482;-47
2023/12/06 10:38:28;;;;;;;92.50;41.00;;;;;;;-1.20;85.12;99026.42;108110;1298;22504;-46
2023/12/06 10:40:54;;;;;;;;;;;;;;;-1.16;85.02;99025.52;108105;1298;22474;-46
2023/12/06 10:43:22;;;;;;;94.20;42.20;;;;;;;-1.15;84.81;99027.25;108134;1305;22791;-47
2023/12/06 10:45:50;;;;;;;102.50;44.10;;;;;;;-1.10;84.92;99026.66;107677;1303;23079;-45
2023/12/06 10:48:17;;;;;;;93.70;42.60;;;;;;;-1.04;84.76;99024.35;108134;1298;22415;-49
2023/12/06 10:50:43;;;;;;;92.60;40.40;;;;;;;-0.99;84.78;99022.05;107983;1298;23973;-47
2023/12/06 10:53:16;;;;;;;100.60;42.30;;;;;;;-0.98;84.59;99018.95;108117;1305;22590;-46
2023/12/06 10:55:42;;;;;;;113.00;44.20;;;;;;;-1.04;84.30;99015.92;108134;1298;22227;-45
2023/12/06 10:58:08;;;;;;;90.90;40.60;;;;;;;-1.08;84.58;99014.60;108081;1305;22810;-47
2023/12/06 11:00:34;;;;;;;102.30;44.00;;;;;;;-1.08;85.03;99014.59;108115;1305;22473;-44
2023/12/06 11:03:01;;;;;;;92.10;40.80;;;;;;;-1.03;84.76;99012.80;108026;1301;22460;-46
2023/12/06 11:05:29;;;;;;;95.60;41.20;;;;;;;-1.03;84.65;99017.28;107183;1298;22593;-41
2023/12/06 11:08:14;;;;;;;92.80;40.40;;;;;;;-1.08;84.81;99018.39;107784;1305;22332;-47
2023/12/06 11:11:04;;;;;;;86.20;38.30;;;;;;;-1.10;85.04;99015.13;108130;1301;22434;-48
2023/12/06 11:13:49;;;;;;;90.40;39.70;;;;;;;-1.12;85.36;99012.58;108102;1305;23528;-47
2023/12/06 11:16:35;;;;;;;91.90;41.50;;;;;;;-1.15;85.50;99015.90;107882;1298;22555;-47
2023/12/06 11:19:02;;;;;;;106.90;44.10;;;;;;;-1.15;85.49;99010.39;108105;1304;23074;-48
2023/12/06 11:21:30;;;;;;;105.20;47.80;;;;;;;-1.17;85.78;99010.73;108131;1305;22997;-44
2023/12/06 11:23:57;;;;;;;92.00;42.00;;;;;;;-1.15;86.09;99015.73;108096;1299;23398;-48
2023/12/06 11:26:22;;;;;;;98.00;43.40;;;;;;;-1.13;86.00;99012.94;108139;1298;22498;-45
2023/12/06 11:28:50;;;;;;;100.70;43.00;;;;;;;-1.13;85.96;99016.04;108066;1305;23399;-47
2023/12/06 11:31:16;;;;;;;95.30;43.60;;;;;;;-1.14;86.02;99014.50;107690;1298;22541;-44
2023/12/06 11:33:53;;;;;;;112.50;44.60;;;;;;;-1.06;86.39;99013.89;108144;1294;22252;-45
2023/12/06 11:36:18;;;;;;;108.50;46.10;;;;;;;-1.01;86.50;99013.30;108051;1298;22257;-43
2023/12/06 11:38:44;;;;;;;114.60;47.30;;;;;;;-0.94;86.43;99015.61;108086;1305;22473;-46
2023/12/06 11:41:16;;;;;;;117.30;47.00;;;;;;;-0.88;86.24;99016.23;107707;1305;22247;-46
2023/12/06 11:43:48;;;;;;;116.00;47.10;;;;;;;-0.86;86.13;99017.75;108039;1292;22360;-47
2023/12/06 11:46:14;;;;;;;112.60;48.80;;;;;;;-0.87;85.99;99014.67;108095;1295;22944;-49
2023/12/06 11:48:41;;;;;;;113.60;48.40;;;;;;;-0.85;85.74;99020.48;108094;1305;22330;-45
2023/12/06 11:51:07;;;;;;;118.10;47.80;;;;;;;-0.79;85.93;99021.45;107911;1305;22291;-45
2023/12/06 11:53:35;;;;;;;98.50;45.10;;;;;;;-0.77;85.76;99022.79;108096;1305;22436;-46
2023/12/06 11:56:01;;;;;;;97.10;44.00;;;;;;;-0.74;85.61;99023.09;107447;1303;22562;-45
2023/12/06 11:58:30;;;;;;;107.10;45.50;;;;;;;-0.68;85.70;99028.52;108033;1305;22364;-45
2023/12/06 12:00:59;;;;;;;101.50;43.80;;;;;;;-0.73;85.13;99025.66;108118;1294;22232;-45
2023/12/06 12:03:25;;;;;;;106.80;46.40;;;;;;;-0.78;85.05;99026.91;108128;1302;22454;-45
2023/12/06 12:05:51;;;;;;;102.00;45.10;;;;;;;-0.75;85.43;99027.93;107877;1305;22262;-46
2023/12/06 12:08:17;;;;;;;93.50;44.00;;;;;;;-0.75;85.30;99024.49;108114;1305;22486;-47
2023/12/06 12:10:43;;;;;;;104.10;46.20;;;;;;;-0.79;85.26;99026.08;108109;1292;22497;-48
2023/12/06 12:13:19;;;;;;;100.80;44.70;;;;;;;-0.81;85.09;99026.29;108131;1292;22554;-45
2023/12/06 12:15:51;;;;;;;109.40;47.50;;;;;;;-0.86;85.12;99020.84;108110;1305;22264;-44
2023/12/06 12:18:18;;;;;;;93.10;42.60;;;;;;;-0.92;85.06;99017.82;108134;1305;22288;-44
2023/12/06 12:20:43;;;;;;;106.40;48.20;;;;;;;-0.93;85.64;99017.14;108071;1305;22255;-46
2023/12/06 12:23:10;;;;;;;96.50;44.40;;;;;;;-0.98;85.48;99014.80;108119;1302;23122;-46
2023/12/06 12:25:36;;;;;;;90.90;43.10;;;;;;;-1.01;85.69;99015.20;107749;1305;22439;-46
2023/12/06 12:28:01;;;;;;;93.50;42.70;;;;;;;-1.02;85.84;99010.90;108108;1305;22256;-46
2023/12/06 12:30:34;;;;;;;112.00;45.50;;;;;;;-1.07;85.75;99010.47;108102;1305;22330;-47
2023/12/06 12:32:59;;;;;;;107.40;44.90;;;;;;;-1.14;85.62;99009.17;108131;1294;22270;-47
2023/12/06 12:35:25;;;;;;;111.40;47.70;;;;;;;-1.18;85.77;99010.58;108074;1304;22396;-45
2023/12/06 12:37:51;;;;;;;110.00;47.40;;;;;;;-1.22;85.83;99014.08;107964;1304;22450;-46
2023/12/06 12:40:18;;;;;;;101.90;45.30;;;;;;;-1.22;86.17;99012.19;108038;1298;22994;-44
2023/12/06 12:42:44;;;;;;;;;;;;;;;-1.21;86.16;99005.45;108105;1291;22531;-45
2023/12/06 12:45:17;;;;;;;110.00;50.20;;;;;;;-1.19;86.53;99006.29;108047;1298;22627;-49
2023/12/06 12:47:43;;;;;;;100.90;41.70;;;;;;;-1.14;86.58;99001.60;108012;1298;22456;-46
2023/12/06 12:50:09;;;;;;;108.30;48.00;;;;;;;-1.13;86.59;98999.68;108080;1298;23218;-45
2023/12/06 12:52:38;;;;;;;98.40;43.70;;;;;;;-1.08;86.55;99000.31;108099;1301;22361;-45
2023/12/06 12:55:05;;;;;;;107.40;46.60;;;;;;;-1.12;86.48;99002.94;108109;1298;22896;-44
2023/12/06 12:57:51;;;;;;;107.80;46.10;;;;;;;-1.12;86.71;99000.20;108113;1305;22974;-45
2023/12/06 13:00:20;;;;;;;106.60;43.80;;;;;;;-1.03;86.49;99003.16;108104;1301;22235;-47
2023/12/06 13:02:50;;;;;;;99.40;43.10;;;;;;;-1.04;86.20;99003.02;108116;1305;22461;-45
2023/12/06 13:05:16;;;;;;;107.50;42.50;;;;;;;-1.02;86.38;99006.77;108127;1305;22572;-48
2023/12/06 13:07:43;;;;;;;108.20;44.20;;;;;;;-1.01;86.68;99007.79;108125;1305;23210;-48
2023/12/06 13:10:10;;;;;;;113.10;46.90;;;;;;;-1.03;86.34;99006.27;108118;1305;22617;-45
2023/12/06 13:12:39;;;;;;;110.30;47.40;;;;;;;-1.05;86.62;99008.54;108142;1305;22535;-46
2023/12/06 13:15:06;;;;;;;109.40;47.50;;;;;;;-1.05;86.72;99009.23;108141;1305;22297;-44
2023/12/06 13:17:32;;;;;;;121.80;51.10;;;;;;;-1.07;86.65;99009.59;108128;1305;22481;-45
2023/12/06 13:19:57;;;;;;;117.60;49.20;;;;;;;-1.08;86.76;99010.30;108112;1305;22252;-45
2023/12/06 13:22:23;;;;;;;125.30;53.00;;;;;;;-1.14;86.65;99014.33;108132;1305;22245;-47
2023/12/06 13:24:49;;;;;;;102.80;43.70;;;;;;;-1.22;86.62;99016.48;108131;1305;22279;-44
2023/12/06 13:27:14;;;;;;;96.80;44.20;;;;;;;-1.30;86.73;99015.55;108125;1305;22320;-44
2023/12/06 13:29:40;;;;;;;102.40;45.10;;;;;;;-1.37;86.71;99020.63;108130;1305;22263;-47
2023/12/06 13:32:06;;;;;;;97.00;43.00;;;;;;;-1.45;87.12;99023.63;108102;1305;22252;-45
2023/12/06 13:34:32;;;;;;;93.90;42.50;;;;;;;-1.48;87.35;99026.92;108140;1305;23009;-45
2023/12/06 13:36:57;;;;;;;106.30;44.50;;;;;;;-1.54;87.40;99029.06;108114;1305;22222;-47
2023/12/06 13:39:26;;;;;;;89.00;40.10;;;;;;;-1.56;87.56;99029.77;108117;1305;22328;-46
2023/12/06 13:41:53;;;;;;;95.60;44.50;;;;;;;-1.56;87.56;99034.40;108119;1305;22379;-43
2023/12/06 13:44:19;;;;;;;96.70;43.20;;;;;;;-1.60;87.82;99032.05;108157;1305;22240;-44
2023/12/06 13:46:44;;;;;;;101.70;45.40;;;;;;;-1.63;87.84;99035.85;108133;1305;22867;-45